Time;durP1;ratioP1;P1;durP2;ratioP2;P2;SDS_P1;SDS_P2;PMS_P1;PMS_P2;Temp;Humidity;BMP_temperature;BMP_pressure;BME280_temperature;BME280_humidity;BME280_pressure;Samples;Min_cycle;Max_cycle;Signal;HPM_P1;HPM_P2
2022/09/21 00:00:25;;;;;;;8.52;4.32;;;11.20;99.90;;;;;;5056420;28;20259;-63
2022/09/21 00:02:51;;;;;;;6.57;4.00;;;11.20;99.90;;;;;;5056393;28;20034;-63
2022/09/21 00:05:16;;;;;;;6.65;4.18;;;11.20;99.90;;;;;;5057618;28;20444;-63
2022/09/21 00:07:43;;;;;;;5.47;3.83;;;11.20;99.90;;;;;;5056782;28;20060;-63
2022/09/21 00:10:09;;;;;;;5.32;3.58;;;11.20;99.90;;;;;;5057007;28;20477;-62
2022/09/21 00:12:37;;;;;;;8.63;3.95;;;11.30;99.90;;;;;;5056521;28;20041;-62
2022/09/21 00:15:05;;;;;;;6.13;3.95;;;11.30;99.90;;;;;;5054777;28;20032;-62
2022/09/21 00:17:30;;;;;;;10.18;3.70;;;11.30;99.90;;;;;;5056228;28;20025;-63
2022/09/21 00:19:56;;;;;;;4.93;3.77;;;11.20;99.90;;;;;;5056568;28;20496;-63
2022/09/21 00:22:21;;;;;;;7.57;4.03;;;11.10;99.90;;;;;;5055813;28;20021;-62
2022/09/21 00:24:47;;;;;;;9.10;3.97;;;11.10;99.90;;;;;;5056683;28;20025;-62
2022/09/21 00:27:12;;;;;;;6.53;3.47;;;11.10;99.90;;;;;;5056628;28;20080;-62
2022/09/21 00:29:38;;;;;;;8.77;3.53;;;11.20;99.90;;;;;;5055954;28;20028;-63
2022/09/21 00:32:04;;;;;;;7.37;3.80;;;11.20;99.90;;;;;;5056212;28;20028;-63
2022/09/21 00:34:31;;;;;;;8.35;4.18;;;11.10;99.90;;;;;;5056478;28;20025;-61
2022/09/21 00:36:57;;;;;;;6.43;3.90;;;11.00;99.90;;;;;;5056210;28;20025;-62
2022/09/21 00:39:22;;;;;;;9.63;3.90;;;11.10;99.90;;;;;;5056199;28;20359;-62
2022/09/21 00:41:52;;;;;;;10.70;4.10;;;11.10;99.90;;;;;;5056658;28;20039;-61
2022/09/21 00:44:20;;;;;;;10.55;3.97;;;11.10;99.90;;;;;;5056570;28;20106;-65
2022/09/21 00:46:50;;;;;;;5.35;3.42;;;11.00;99.90;;;;;;5055703;28;20025;-61
2022/09/21 00:49:16;;;;;;;8.90;3.90;;;11.00;99.90;;;;;;5055440;28;20029;-63
2022/09/21 00:51:43;;;;;;;7.72;4.43;;;10.90;99.90;;;;;;5055562;28;20033;-64
2022/09/21 00:54:11;;;;;;;;;;;10.90;99.90;;;;;;5056487;28;20470;-63
2022/09/21 00:56:37;;;;;;;7.50;4.28;;;10.80;99.90;;;;;;5056003;28;20297;-64
2022/09/21 00:59:04;;;;;;;5.65;3.78;;;10.70;99.90;;;;;;5055769;28;20028;-60
2022/09/21 01:01:31;;;;;;;10.82;4.13;;;10.70;99.90;;;;;;5054109;28;20120;-62
2022/09/21 01:03:56;;;;;;;9.70;4.28;;;10.70;99.90;;;;;;5055592;28;20090;-61
2022/09/21 01:06:23;;;;;;;9.27;3.90;;;10.70;99.90;;;;;;5055424;28;20032;-61
2022/09/21 01:08:56;;;;;;;7.05;4.07;;;10.80;99.90;;;;;;5055632;28;20029;-63
2022/09/21 01:11:33;;;;;;;8.23;4.05;;;10.80;99.90;;;;;;5055531;28;20086;-62
2022/09/21 01:14:26;;;;;;;12.70;4.32;;;10.70;99.90;;;;;;5055402;28;20584;-62
2022/09/21 01:17:08;;;;;;;8.85;4.20;;;10.70;99.90;;;;;;5054945;28;20100;-60
2022/09/21 01:20:07;;;;;;;9.43;3.58;;;10.70;99.90;;;;;;5055100;28;20021;-61
2022/09/21 01:22:51;;;;;;;7.55;3.08;;;10.60;99.90;;;;;;5055415;28;20021;-61
2022/09/21 01:25:57;;;;;;;9.00;4.15;;;10.60;99.90;;;;;;5055176;28;20025;-61
2022/09/21 01:28:47;;;;;;;9.13;3.50;;;10.40;99.90;;;;;;5054671;28;20032;-62
2022/09/21 01:31:21;;;;;;;7.80;3.70;;;10.30;99.90;;;;;;5054687;28;20094;-61
2022/09/21 01:33:51;;;;;;;7.35;3.58;;;10.40;99.90;;;;;;5054671;28;20093;-61
2022/09/21 01:36:23;;;;;;;7.38;3.20;;;10.30;99.90;;;;;;5054845;28;20029;-61
2022/09/21 01:38:53;;;;;;;5.88;3.45;;;10.10;99.90;;;;;;5055887;28;20025;-60
2022/09/21 01:41:24;;;;;;;7.65;3.75;;;9.90;99.90;;;;;;5054362;28;20036;-58
2022/09/21 01:43:56;;;;;;;6.25;3.22;;;9.80;99.90;;;;;;5054821;28;20044;-61
2022/09/21 01:46:27;;;;;;;10.45;3.22;;;9.70;99.90;;;;;;5054217;28;20478;-61
2022/09/21 01:48:58;;;;;;;7.60;3.80;;;9.70;99.90;;;;;;5054071;28;20107;-62
2022/09/21 01:51:27;;;;;;;7.35;3.30;;;9.70;99.90;;;;;;5053461;28;20041;-62
2022/09/21 01:53:58;;;;;;;6.78;3.65;;;9.80;99.90;;;;;;5053793;28;20040;-60
2022/09/21 01:56:36;;;;;;;8.52;3.45;;;9.70;99.90;;;;;;5054292;28;20029;-62
2022/09/21 01:59:26;;;;;;;11.18;4.00;;;9.60;99.90;;;;;;5054193;28;20032;-61
2022/09/21 02:01:57;;;;;;;7.70;3.28;;;9.60;99.90;;;;;;5053577;28;20025;-62
2022/09/21 02:04:22;;;;;;;6.50;3.38;;;9.50;99.90;;;;;;5054061;28;20032;-62
2022/09/21 02:06:49;;;;;;;9.83;3.47;;;9.40;99.90;;;;;;5054641;28;20100;-62
2022/09/21 02:09:16;;;;;;;7.35;3.35;;;9.40;99.90;;;;;;5053823;28;20100;-62
2022/09/21 02:11:43;;;;;;;7.15;3.70;;;9.40;99.90;;;;;;5053497;28;20029;-63
2022/09/21 02:14:12;;;;;;;8.52;3.83;;;9.30;99.90;;;;;;5053322;28;20120;-62
2022/09/21 02:16:45;;;;;;;7.43;3.50;;;9.20;99.90;;;;;;5053325;28;20029;-62
2022/09/21 02:19:14;;;;;;;5.93;3.42;;;9.20;99.90;;;;;;5053332;28;20027;-62
2022/09/21 02:22:03;;;;;;;10.13;4.03;;;9.20;99.90;;;;;;5054241;28;20052;-61
2022/09/21 02:24:53;;;;;;;9.95;3.80;;;9.20;99.90;;;;;;5053742;28;20032;-61
2022/09/21 02:27:54;;;;;;;9.73;3.78;;;9.20;99.90;;;;;;5053675;28;20032;-61
2022/09/21 02:30:23;;;;;;;9.93;3.58;;;9.10;99.90;;;;;;5052669;28;20039;-61
2022/09/21 02:33:10;;;;;;;6.40;3.75;;;9.20;99.90;;;;;;5053099;28;20441;-61
2022/09/21 02:35:50;;;;;;;5.95;3.80;;;9.30;99.90;;;;;;5053054;28;20127;-61
2022/09/21 02:38:19;;;;;;;7.43;3.58;;;9.20;99.90;;;;;;5053310;28;20025;-61
2022/09/21 02:40:44;;;;;;;7.05;3.50;;;9.20;99.90;;;;;;5053464;28;20401;-61
2022/09/21 02:43:29;;;;;;;9.90;3.10;;;9.20;99.90;;;;;;5052995;28;20120;-61
2022/09/21 02:46:04;;;;;;;5.43;3.90;;;9.20;99.90;;;;;;5052997;28;20120;-61
2022/09/21 02:48:53;;;;;;;6.13;3.28;;;9.20;99.90;;;;;;5053393;28;20477;-63
2022/09/21 02:51:30;;;;;;;8.45;3.95;;;9.20;99.90;;;;;;5052396;28;20498;-59
2022/09/21 02:53:57;;;;;;;7.15;3.50;;;9.10;99.90;;;;;;5053244;28;20028;-62
2022/09/21 02:56:25;;;;;;;6.30;3.65;;;9.10;99.90;;;;;;5053184;28;20079;-61
2022/09/21 02:58:55;;;;;;;5.80;3.30;;;9.10;99.90;;;;;;5053173;28;20385;-61
2022/09/21 03:01:23;;;;;;;5.40;3.17;;;9.10;99.90;;;;;;5053381;28;20021;-61
2022/09/21 03:03:48;;;;;;;8.27;3.40;;;9.10;99.90;;;;;;5052556;28;20040;-61
2022/09/21 03:06:14;;;;;;;7.18;3.28;;;9.00;99.90;;;;;;5052935;28;20025;-61
2022/09/21 03:08:39;;;;;;;8.70;3.40;;;8.90;99.90;;;;;;5052833;28;20405;-60
2022/09/21 03:11:05;;;;;;;5.60;3.70;;;8.90;99.90;;;;;;5052643;28;20090;-61
2022/09/21 03:13:31;;;;;;;4.57;3.13;;;8.80;99.90;;;;;;5052784;28;20098;-62
2022/09/21 03:16:01;;;;;;;8.97;3.67;;;8.80;99.90;;;;;;5053271;28;20263;-62
2022/09/21 03:18:27;;;;;;;7.25;3.30;;;8.90;99.90;;;;;;5053047;28;20031;-61
2022/09/21 03:20:53;;;;;;;8.52;3.45;;;9.00;99.90;;;;;;5052787;28;20100;-61
2022/09/21 03:23:18;;;;;;;5.30;3.50;;;9.00;99.90;;;;;;5052869;28;20505;-61
2022/09/21 03:25:47;;;;;;;7.37;3.67;;;9.10;99.90;;;;;;5052505;28;20024;-60
2022/09/21 03:28:14;;;;;;;8.23;3.05;;;9.20;99.90;;;;;;5052442;28;20500;-61
2022/09/21 03:30:40;;;;;;;6.90;3.22;;;9.40;99.90;;;;;;5052413;28;20036;-62
2022/09/21 03:33:07;;;;;;;5.55;3.20;;;9.40;99.90;;;;;;5052319;28;20025;-60
2022/09/21 03:35:33;;;;;;;5.88;3.53;;;9.50;99.90;;;;;;5052959;28;20029;-62
2022/09/21 03:37:59;;;;;;;6.03;3.47;;;9.40;99.90;;;;;;5053340;28;20477;-61
2022/09/21 03:40:28;;;;;;;;;;;9.30;99.90;;;;;;5052734;28;20028;-62
2022/09/21 03:42:54;;;;;;;8.32;3.28;;;9.20;99.90;;;;;;5052409;28;20079;-61
2022/09/21 03:45:26;;;;;;;6.88;3.75;;;9.10;99.90;;;;;;5050992;28;20029;-61
2022/09/21 03:48:00;;;;;;;7.25;3.47;;;9.00;99.90;;;;;;5054248;28;20465;-62
2022/09/21 03:50:27;;;;;;;5.18;3.20;;;9.00;99.90;;;;;;5051914;28;20072;-60
2022/09/21 03:52:53;;;;;;;5.78;3.88;;;9.00;99.90;;;;;;5052313;28;20021;-59
2022/09/21 03:55:20;;;;;;;7.35;3.55;;;8.90;99.90;;;;;;5052364;28;20091;-61
2022/09/21 03:57:45;;;;;;;7.78;3.03;;;8.90;99.90;;;;;;5052229;28;20075;-63
2022/09/21 04:00:11;;;;;;;6.53;3.20;;;8.80;99.90;;;;;;5052150;28;20472;-62
2022/09/21 04:02:40;;;;;;;4.68;3.05;;;8.80;99.90;;;;;;5052023;28;20032;-63
2022/09/21 04:05:08;;;;;;;6.65;3.30;;;8.70;99.90;;;;;;5052218;28;20033;-60
2022/09/21 04:07:34;;;;;;;5.30;2.97;;;8.70;99.90;;;;;;5051984;28;20475;-62
2022/09/21 04:10:04;;;;;;;6.50;2.63;;;8.60;99.90;;;;;;5052026;28;20027;-60
2022/09/21 04:12:31;;;;;;;8.02;3.50;;;8.50;99.90;;;;;;5052089;28;20488;-62
2022/09/21 04:14:57;;;;;;;4.72;2.97;;;8.40;99.90;;;;;;5053312;28;20029;-62
2022/09/21 04:17:22;;;;;;;7.60;2.87;;;8.40;99.90;;;;;;5055622;28;20021;-61
2022/09/21 04:19:48;;;;;;;3.90;2.93;;;8.40;99.90;;;;;;5055606;28;20021;-62
2022/09/21 04:22:14;;;;;;;5.77;3.50;;;8.30;99.90;;;;;;5055862;28;20180;-63
2022/09/21 04:24:39;;;;;;;7.97;3.67;;;8.30;99.90;;;;;;5055522;28;20055;-63
2022/09/21 04:27:06;;;;;;;8.23;3.83;;;8.30;99.90;;;;;;5055731;28;20269;-62
2022/09/21 04:29:31;;;;;;;;;;;8.30;99.90;;;;;;5056291;28;20385;-61
2022/09/21 04:31:57;;;;;;;8.57;3.60;;;8.30;99.90;;;;;;5055490;28;19912;-56
2022/09/21 04:34:22;;;;;;;7.27;3.43;;;8.20;99.90;;;;;;5055485;28;20112;-60
2022/09/21 04:36:48;;;;;;;10.57;4.13;;;8.10;99.90;;;;;;5055371;28;20075;-60
2022/09/21 04:39:13;;;;;;;7.30;3.60;;;8.10;99.90;;;;;;5055930;28;20024;-62
2022/09/21 04:41:40;;;;;;;7.27;3.47;;;8.10;99.90;;;;;;5055256;28;20041;-62
2022/09/21 04:44:06;;;;;;;7.28;3.75;;;8.00;99.90;;;;;;5055550;28;20016;-61
2022/09/21 04:46:32;;;;;;;7.45;3.67;;;8.10;99.90;;;;;;5055097;28;20367;-62
2022/09/21 04:48:58;;;;;;;8.23;3.88;;;8.10;99.90;;;;;;5055449;28;20517;-62
2022/09/21 04:51:23;;;;;;;6.73;3.53;;;8.10;99.90;;;;;;5055134;28;20036;-62
2022/09/21 04:53:49;;;;;;;11.83;4.20;;;8.00;99.90;;;;;;5055297;28;20446;-62
2022/09/21 04:56:15;;;;;;;7.00;3.70;;;7.90;99.90;;;;;;5055269;28;20029;-63
2022/09/21 04:58:41;;;;;;;7.35;3.78;;;7.80;99.90;;;;;;5055165;28;20040;-59
2022/09/21 05:01:07;;;;;;;8.85;4.25;;;7.70;99.90;;;;;;5055159;28;20532;-61
2022/09/21 05:03:33;;;;;;;7.97;3.93;;;7.70;99.90;;;;;;5055015;28;20029;-63
2022/09/21 05:05:59;;;;;;;7.55;3.88;;;7.80;99.90;;;;;;5055083;28;20053;-58
2022/09/21 05:11:17;;;;;;;11.63;4.07;;;7.70;99.90;;;;;;5054989;28;20121;-61
2022/09/21 05:13:43;;;;;;;9.82;3.88;;;7.50;99.90;;;;;;5054766;28;20017;-59
2022/09/21 05:16:09;;;;;;;7.40;3.67;;;7.40;99.90;;;;;;5053377;28;20059;-55
2022/09/21 05:18:34;;;;;;;18.37;4.03;;;7.30;99.90;;;;;;5054583;28;20025;-61
2022/09/21 05:21:02;;;;;;;9.98;4.15;;;7.40;99.90;;;;;;5054512;28;20029;-59
2022/09/21 05:23:30;;;;;;;10.70;4.03;;;7.50;99.90;;;;;;5054467;28;20447;-60
2022/09/21 05:25:56;;;;;;;5.50;3.38;;;7.50;99.90;;;;;;5054259;28;20065;-58
2022/09/21 05:28:22;;;;;;;;;;;7.60;99.90;;;;;;5055290;28;20025;-61
2022/09/21 05:30:56;;;;;;;6.85;3.70;;;7.60;99.90;;;;;;5054375;28;19912;-61
2022/09/21 05:33:25;;;;;;;5.47;3.72;;;7.60;99.90;;;;;;5054402;28;20493;-61
2022/09/21 05:36:07;;;;;;;7.40;3.53;;;7.60;99.90;;;;;;5055523;28;20478;-61
2022/09/21 05:38:33;;;;;;;6.93;3.78;;;7.50;99.90;;;;;;5055129;28;20021;-61
2022/09/21 05:40:59;;;;;;;8.77;4.57;;;7.40;99.90;;;;;;5055024;28;20033;-58
2022/09/21 05:43:25;;;;;;;8.57;3.70;;;7.40;99.90;;;;;;5054663;28;20687;-60
2022/09/21 05:46:01;;;;;;;7.30;3.72;;;7.40;99.90;;;;;;5054877;28;20040;-60
2022/09/21 05:48:36;;;;;;;6.63;3.80;;;7.40;99.90;;;;;;5054321;28;20132;-60
2022/09/21 05:51:33;;;;;;;7.85;3.95;;;7.40;99.90;;;;;;5054074;28;20040;-60
2022/09/21 05:54:25;;;;;;;6.53;3.70;;;7.40;99.90;;;;;;5054894;28;20390;-61
2022/09/21 05:57:21;;;;;;;8.52;4.03;;;7.40;99.90;;;;;;5053944;28;20021;-60
2022/09/21 06:00:01;;;;;;;8.27;4.07;;;7.50;99.90;;;;;;5054309;28;20025;-61
2022/09/21 06:02:48;;;;;;;7.55;4.10;;;7.40;99.90;;;;;;5053849;28;20493;-60
2022/09/21 06:05:14;;;;;;;9.48;4.30;;;7.50;99.90;;;;;;5054224;28;20454;-59
2022/09/21 06:07:40;;;;;;;;;;;7.50;99.90;;;;;;5054016;28;20466;-61
2022/09/21 06:10:07;;;;;;;8.98;4.45;;;7.60;99.90;;;;;;5053709;28;19905;-61
2022/09/21 06:12:33;;;;;;;7.70;4.20;;;7.60;99.90;;;;;;5053241;28;20028;-62
2022/09/21 06:14:58;;;;;;;6.00;3.80;;;7.70;99.90;;;;;;5054302;28;20021;-60
2022/09/21 06:17:26;;;;;;;10.50;4.37;;;7.70;99.90;;;;;;5053579;28;20021;-60
2022/09/21 06:19:52;;;;;;;12.25;4.43;;;7.70;99.90;;;;;;5053478;28;20024;-61
2022/09/21 06:22:18;;;;;;;7.07;4.13;;;7.80;99.90;;;;;;5053555;28;20021;-60
2022/09/21 06:24:44;;;;;;;9.77;4.30;;;7.90;99.90;;;;;;5053705;28;20025;-57
2022/09/21 06:27:09;;;;;;;9.20;4.40;;;8.00;99.90;;;;;;5053550;28;20044;-60
2022/09/21 06:29:35;;;;;;;8.37;4.27;;;8.10;99.90;;;;;;5053141;28;20398;-61
2022/09/21 06:32:02;;;;;;;7.90;4.37;;;8.20;99.90;;;;;;5053187;28;20021;-61
2022/09/21 06:34:27;;;;;;;8.07;3.97;;;8.20;99.90;;;;;;5053371;28;20024;-61
2022/09/21 06:36:53;;;;;;;9.27;4.27;;;8.20;99.90;;;;;;5053394;28;20532;-63
2022/09/21 06:39:18;;;;;;;10.33;4.17;;;8.30;99.90;;;;;;5051999;28;20025;-61
2022/09/21 06:41:44;;;;;;;7.67;3.93;;;8.30;99.90;;;;;;5053239;28;20021;-57
2022/09/21 06:44:09;;;;;;;6.77;4.13;;;8.40;99.90;;;;;;5053301;28;20389;-62
2022/09/21 06:46:35;;;;;;;10.67;5.33;;;8.50;99.90;;;;;;5053278;28;20029;-60
2022/09/21 06:49:01;;;;;;;9.77;5.00;;;8.60;99.90;;;;;;5053141;28;20390;-62
2022/09/21 06:51:26;;;;;;;11.37;4.70;;;8.60;99.90;;;;;;5052932;28;20032;-63
2022/09/21 06:53:56;;;;;;;10.67;5.30;;;8.70;99.90;;;;;;5053744;28;20025;-63
2022/09/21 06:56:22;;;;;;;10.23;4.70;;;8.70;99.90;;;;;;5053557;28;20485;-62
2022/09/21 06:58:47;;;;;;;10.83;5.70;;;8.80;99.90;;;;;;5053199;28;20103;-63
2022/09/21 07:01:14;;;;;;;8.90;5.17;;;8.80;99.90;;;;;;5053063;28;20117;-63
2022/09/21 07:03:40;;;;;;;;;;;8.90;99.90;;;;;;5053516;28;20115;-64
2022/09/21 07:06:07;;;;;;;9.70;4.75;;;9.00;99.90;;;;;;5054256;28;19904;-63
2022/09/21 07:08:34;;;;;;;9.20;4.63;;;9.20;99.90;;;;;;5054262;28;20100;-64
2022/09/21 07:11:00;;;;;;;11.30;5.00;;;9.20;99.90;;;;;;5053862;28;20048;-65
2022/09/21 07:13:26;;;;;;;16.15;5.10;;;9.40;99.90;;;;;;5053345;28;20068;-65
2022/09/21 07:15:52;;;;;;;10.85;5.47;;;9.40;99.90;;;;;;5053552;28;20044;-62
2022/09/21 07:18:18;;;;;;;10.45;5.47;;;9.40;99.90;;;;;;5052945;28;20017;-63
2022/09/21 07:20:43;;;;;;;12.33;6.30;;;9.50;99.90;;;;;;5053008;28;20393;-64
2022/09/21 07:23:14;;;;;;;9.93;5.30;;;9.50;99.90;;;;;;5052781;28;20075;-63
2022/09/21 07:25:41;;;;;;;8.50;5.13;;;9.60;99.90;;;;;;5052720;28;20033;-64
2022/09/21 07:28:06;;;;;;;8.75;5.63;;;9.80;99.90;;;;;;5052611;28;20505;-63
2022/09/21 07:30:32;;;;;;;9.13;5.20;;;9.80;99.90;;;;;;5052692;28;20033;-65
2022/09/21 07:32:58;;;;;;;8.05;5.25;;;9.90;99.90;;;;;;5052749;28;20345;-63
2022/09/21 07:35:23;;;;;;;11.80;5.80;;;10.00;99.90;;;;;;5052845;28;20044;-62
2022/09/21 07:37:49;;;;;;;11.53;6.43;;;10.10;99.90;;;;;;5052662;28;20466;-62
2022/09/21 07:40:14;;;;;;;9.67;5.20;;;10.10;99.90;;;;;;5052421;28;20021;-63
2022/09/21 07:42:40;;;;;;;12.40;5.33;;;10.20;99.90;;;;;;5052696;28;20025;-63
2022/09/21 07:45:06;;;;;;;12.47;6.30;;;10.30;99.90;;;;;;5052845;28;20055;-63
2022/09/21 07:47:32;;;;;;;10.57;5.85;;;10.40;99.90;;;;;;5051495;28;20079;-63
2022/09/21 07:49:57;;;;;;;12.07;5.93;;;10.40;99.90;;;;;;5054193;28;20025;-63
2022/09/21 07:52:23;;;;;;;8.77;5.03;;;10.50;99.90;;;;;;5057810;28;20021;-64
2022/09/21 07:54:48;;;;;;;10.00;5.70;;;10.60;99.90;;;;;;5055411;28;20506;-63
2022/09/21 07:59:58;;;;;;;15.27;6.07;;;10.90;99.90;;;;;;5057643;28;20390;-64
2022/09/21 08:02:24;;;;;;;12.53;5.87;;;11.00;99.90;;;;;;5057709;28;20017;-64
2022/09/21 08:04:49;;;;;;;13.48;5.63;;;11.10;99.90;;;;;;5057274;28;20036;-64
2022/09/21 08:07:15;;;;;;;11.97;6.10;;;11.10;99.90;;;;;;5056446;28;20033;-63
2022/09/21 08:09:40;;;;;;;14.63;6.40;;;11.30;99.90;;;;;;5056918;28;20040;-63
2022/09/21 08:12:07;;;;;;;11.17;6.30;;;11.40;99.90;;;;;;5056552;28;20029;-63
2022/09/21 08:14:33;;;;;;;14.27;6.95;;;11.50;99.90;;;;;;5055971;28;20031;-64
2022/09/21 08:16:59;;;;;;;11.65;5.93;;;11.70;99.90;;;;;;5056186;28;20441;-64
2022/09/21 08:19:25;;;;;;;14.10;6.30;;;11.80;99.90;;;;;;5056422;28;20108;-64
2022/09/21 08:21:51;;;;;;;11.55;5.60;;;11.90;99.90;;;;;;5055770;28;20056;-63
2022/09/21 08:24:16;;;;;;;11.87;6.30;;;11.90;99.90;;;;;;5056252;28;20056;-63
2022/09/21 08:26:42;;;;;;;13.57;6.50;;;12.10;99.90;;;;;;5054521;28;20061;-64
2022/09/21 08:29:08;;;;;;;13.05;5.95;;;12.10;99.90;;;;;;5055744;28;20025;-63
2022/09/21 08:31:34;;;;;;;11.50;6.40;;;12.30;99.90;;;;;;5055736;28;20116;-63
2022/09/21 08:33:59;;;;;;;13.07;6.10;;;12.40;99.90;;;;;;5056000;28;20036;-63
2022/09/21 08:36:25;;;;;;;11.15;6.18;;;12.50;99.90;;;;;;5056308;28;20461;-64
2022/09/21 08:38:51;;;;;;;11.20;5.83;;;12.70;99.90;;;;;;5055796;28;20461;-64
2022/09/21 08:41:19;;;;;;;11.77;6.00;;;12.90;99.90;;;;;;5055372;28;20259;-64
2022/09/21 08:43:49;;;;;;;11.48;5.80;;;13.10;99.90;;;;;;5055513;28;20266;-64
2022/09/21 08:46:21;;;;;;;11.40;6.53;;;13.30;99.90;;;;;;5055274;28;20029;-63
2022/09/21 08:49:08;;;;;;;10.65;5.25;;;13.60;99.90;;;;;;5055403;28;20051;-63
2022/09/21 08:51:35;;;;;;;;;;;13.80;99.90;;;;;;5055521;28;20461;-64
2022/09/21 08:54:14;;;;;;;11.48;4.65;;;14.10;99.90;;;;;;5055102;28;19944;-64
2022/09/21 08:56:39;;;;;;;8.63;4.20;;;14.90;99.90;;;;;;5055022;28;20036;-64
2022/09/21 08:59:11;;;;;;;8.10;4.07;;;17.70;99.90;;;;;;5054947;28;20025;-64
2022/09/21 09:02:01;;;;;;;7.88;4.00;;;20.80;98.90;;;;;;5055047;28;20478;-63
2022/09/21 09:04:33;;;;;;;7.60;3.60;;;22.80;94.80;;;;;;5055213;28;20021;-63
2022/09/21 09:07:20;;;;;;;4.78;3.38;;;23.60;92.40;;;;;;5055102;28;20033;-63
2022/09/21 09:10:05;;;;;;;;;;;25.50;88.00;;;;;;5055288;28;20021;-64
2022/09/21 09:12:32;;;;;;;8.23;3.25;;;26.70;82.90;;;;;;5055060;28;20018;-64
2022/09/21 09:15:44;;;;;;;5.97;3.35;;;27.80;78.50;;;;;;5054886;28;20021;-64
2022/09/21 09:18:30;;;;;;;6.05;3.45;;;28.30;74.60;;;;;;5033217;28;20041;-64
2022/09/21 09:21:22;;;;;;;8.75;3.08;;;26.30;77.80;;;;;;5032756;28;20018;-64
2022/09/21 09:23:55;;;;;;;7.25;3.38;;;28.00;75.50;;;;;;5033010;28;20067;-64
2022/09/21 09:26:29;;;;;;;5.60;3.60;;;28.50;73.80;;;;;;5033332;28;20406;-64
2022/09/21 09:28:59;;;;;;;6.97;4.05;;;29.70;72.00;;;;;;5016660;28;20038;-64
2022/09/21 09:31:30;;;;;;;6.57;3.40;;;31.30;69.00;;;;;;5032610;28;20025;-64
2022/09/21 09:34:22;;;;;;;6.20;3.00;;;32.10;64.80;;;;;;5032319;28;20030;-63
2022/09/21 09:36:55;;;;;;;6.65;3.10;;;30.10;65.70;;;;;;5032550;28;20088;-65
2022/09/21 09:39:20;;;;;;;5.45;2.80;;;29.50;66.10;;;;;;5032598;28;20116;-63
2022/09/21 09:41:49;;;;;;;;;;;29.40;66.50;;;;;;5032747;28;20042;-64
2022/09/21 09:44:30;;;;;;;4.93;2.45;;;27.80;68.00;;;;;;5015511;28;19995;-65
2022/09/21 09:47:24;;;;;;;5.82;2.70;;;28.30;67.60;;;;;;5032202;28;20049;-65
2022/09/21 09:50:19;;;;;;;3.53;2.20;;;28.50;67.90;;;;;;5032084;28;20037;-65
2022/09/21 09:52:46;;;;;;;5.25;2.92;;;29.30;67.60;;;;;;5032143;28;20129;-65
2022/09/21 09:55:22;;;;;;;7.00;2.85;;;30.50;64.90;;;;;;5051508;28;20025;-65
2022/09/21 09:57:48;;;;;;;6.43;2.33;;;30.20;65.30;;;;;;5053975;28;20458;-65
2022/09/21 10:00:17;;;;;;;3.38;2.30;;;30.20;63.60;;;;;;5053687;28;20075;-65
2022/09/21 10:02:57;;;;;;;4.30;2.10;;;29.90;63.30;;;;;;5053667;28;20025;-65
2022/09/21 10:05:37;;;;;;;4.13;1.83;;;29.60;64.30;;;;;;5053725;28;20386;-65
2022/09/21 10:08:03;;;;;;;2.83;1.45;;;28.00;64.10;;;;;;5053693;28;20043;-65
2022/09/21 10:10:32;;;;;;;6.28;1.92;;;28.00;64.30;;;;;;5052317;28;20057;-65
2022/09/21 10:13:13;;;;;;;4.28;1.70;;;28.00;65.00;;;;;;5053096;28;20025;-65
2022/09/21 10:15:42;;;;;;;4.60;1.42;;;28.60;63.20;;;;;;5054051;28;20064;-65
2022/09/21 10:18:18;;;;;;;3.40;1.50;;;28.80;63.30;;;;;;5053856;28;20021;-65
2022/09/21 10:20:54;;;;;;;2.97;1.40;;;28.70;63.40;;;;;;5053335;28;20096;-65
2022/09/21 10:23:20;;;;;;;4.63;1.50;;;28.80;63.00;;;;;;5053408;28;20052;-65
2022/09/21 10:25:52;;;;;;;;;;;28.00;63.70;;;;;;5053678;28;20503;-65
2022/09/21 10:28:19;;;;;;;2.88;1.20;;;28.00;64.90;;;;;;5053749;28;19909;-65
2022/09/21 10:30:44;;;;;;;3.35;1.20;;;27.50;63.30;;;;;;5053415;28;20024;-65
2022/09/21 10:33:21;;;;;;;4.80;1.20;;;26.00;65.20;;;;;;5053224;28;20085;-65
2022/09/21 10:35:51;;;;;;;4.07;1.60;;;25.80;65.80;;;;;;5051950;28;20021;-65
2022/09/21 10:38:19;;;;;;;3.72;1.60;;;26.70;65.40;;;;;;5053259;28;20017;-65
2022/09/21 10:40:46;;;;;;;3.22;1.55;;;27.20;64.40;;;;;;5052989;28;20052;-64
2022/09/21 10:43:30;;;;;;;3.15;1.48;;;24.60;66.90;;;;;;5053267;28;20382;-64
2022/09/21 10:45:57;;;;;;;4.78;1.52;;;23.40;70.90;;;;;;5053356;28;20180;-64
2022/09/21 10:48:25;;;;;;;4.78;1.50;;;24.60;69.60;;;;;;5053668;28;20432;-65
2022/09/21 10:50:52;;;;;;;3.30;1.30;;;24.40;69.50;;;;;;5053152;28;20052;-65
2022/09/21 10:53:28;;;;;;;2.42;1.30;;;25.70;67.50;;;;;;5053425;28;20116;-65
2022/09/21 10:56:12;;;;;;;2.85;1.60;;;25.80;67.00;;;;;;5053526;28;20036;-65
2022/09/21 10:58:38;;;;;;;3.35;1.60;;;26.20;66.10;;;;;;5053469;28;20155;-65
2022/09/21 11:01:33;;;;;;;6.97;1.63;;;25.40;66.30;;;;;;5052957;28;20127;-65
2022/09/21 11:04:10;;;;;;;2.58;1.33;;;22.60;71.60;;;;;;5031894;28;20141;-64
2022/09/21 11:06:51;;;;;;;3.08;2.08;;;21.40;74.70;;;;;;5031817;28;20033;-64
2022/09/21 11:09:28;;;;;;;4.78;1.70;;;20.10;78.20;;;;;;5031615;28;20029;-65
2022/09/21 11:12:15;;;;;;;5.22;1.55;;;19.20;80.50;;;;;;5031141;28;20033;-65
2022/09/21 11:15:15;;;;;;;3.80;1.77;;;18.70;82.20;;;;;;5031310;28;20037;-64
2022/09/21 11:17:48;;;;;;;6.95;1.60;;;18.30;83.40;;;;;;5031139;28;20022;-65
2022/09/21 11:20:13;;;;;;;2.78;1.75;;;17.90;85.10;;;;;;5030792;28;20068;-65
2022/09/21 11:23:13;;;;;;;2.40;1.30;;;17.60;85.10;;;;;;5031509;28;20140;-65
2022/09/21 11:25:45;;;;;;;4.68;1.30;;;17.20;86.10;;;;;;5033277;28;20022;-64
2022/09/21 11:28:23;;;;;;;7.85;2.00;;;16.90;86.90;;;;;;5035036;28;20041;-64
2022/09/21 11:31:09;;;;;;;3.55;1.63;;;17.00;88.10;;;;;;5035347;28;20095;-65
2022/09/21 11:34:11;;;;;;;6.35;1.50;;;16.90;89.00;;;;;;5018377;28;20029;-65
2022/09/21 11:37:09;;;;;;;2.78;1.83;;;17.00;88.80;;;;;;5034851;28;20112;-65
2022/09/21 11:40:14;;;;;;;4.38;1.35;;;17.00;90.10;;;;;;5039185;28;20032;-65
2022/09/21 11:43:06;;;;;;;1.40;1.15;;;17.10;89.30;;;;;;5056594;28;20055;-65
2022/09/21 11:45:56;;;;;;;5.35;1.67;;;17.10;89.10;;;;;;5056800;28;20444;-65
2022/09/21 11:48:40;;;;;;;3.75;1.15;;;17.10;88.60;;;;;;5057291;28;20017;-65
2022/09/21 11:51:30;;;;;;;5.50;1.20;;;17.10;88.50;;;;;;5057020;28;20033;-66
2022/09/21 11:54:40;;;;;;;3.72;1.10;;;17.30;88.80;;;;;;5055846;28;20032;-66
2022/09/21 11:57:17;;;;;;;1.67;0.90;;;17.30;87.50;;;;;;5055822;28;20488;-66
2022/09/21 12:00:01;;;;;;;;;;;17.40;88.00;;;;;;5055899;28;20029;-66
2022/09/21 12:02:50;;;;;;;3.78;1.35;;;17.40;87.00;;;;;;5056306;28;19911;-65
2022/09/21 12:05:41;;;;;;;2.85;0.90;;;17.40;86.50;;;;;;5056639;28;20017;-65
2022/09/21 12:08:28;;;;;;;2.72;0.95;;;17.50;86.00;;;;;;5056736;28;20017;-66
2022/09/21 12:11:00;;;;;;;4.32;0.80;;;17.40;86.70;;;;;;5056722;28;20091;-67
2022/09/21 12:13:53;;;;;;;2.97;0.90;;;17.30;87.90;;;;;;5056292;28;20126;-65
2022/09/21 12:16:41;;;;;;;2.35;0.70;;;17.40;86.20;;;;;;5057403;28;20527;-66
2022/09/21 12:19:09;;;;;;;;;;;17.30;85.00;;;;;;5057750;28;20427;-65
2022/09/21 12:21:48;;;;;;;1.60;0.70;;;17.30;85.40;;;;;;5056584;28;19905;-65
2022/09/21 12:24:22;;;;;;;3.50;0.85;;;17.30;86.10;;;;;;5057537;28;20027;-67
2022/09/21 12:26:57;;;;;;;2.17;1.10;;;17.40;85.50;;;;;;5056521;28;20136;-63
2022/09/21 12:29:29;;;;;;;2.70;1.00;;;17.40;84.30;;;;;;5056425;28;20021;-63
2022/09/21 12:32:17;;;;;;;1.20;0.70;;;17.40;84.60;;;;;;5056082;28;20068;-63
2022/09/21 12:34:48;;;;;;;1.55;0.80;;;17.40;84.80;;;;;;5056227;28;20572;-65
2022/09/21 12:37:22;;;;;;;3.40;0.70;;;17.50;85.00;;;;;;5055879;28;20036;-63
2022/09/21 12:40:01;;;;;;;3.65;1.15;;;17.60;85.20;;;;;;5055890;28;20100;-65
2022/09/21 12:42:47;;;;;;;1.23;0.70;;;17.60;85.20;;;;;;5056069;28;20020;-62
2022/09/21 12:45:24;;;;;;;1.75;0.60;;;17.60;85.20;;;;;;5055375;28;20028;-62
2022/09/21 12:48:01;;;;;;;1.85;0.75;;;17.60;85.10;;;;;;5055930;28;20025;-63
2022/09/21 12:50:34;;;;;;;2.00;0.65;;;17.60;85.80;;;;;;5055563;28;20388;-64
2022/09/21 12:53:01;;;;;;;2.22;0.90;;;17.60;85.10;;;;;;5054684;28;20045;-64
2022/09/21 12:55:33;;;;;;;4.18;0.88;;;17.70;85.20;;;;;;5055432;28;20036;-64
2022/09/21 12:58:20;;;;;;;1.50;0.70;;;17.80;85.40;;;;;;5057231;28;20075;-64
2022/09/21 13:00:52;;;;;;;4.18;0.80;;;17.80;85.30;;;;;;5057489;28;20032;-64
2022/09/21 13:03:46;;;;;;;2.58;0.95;;;17.80;85.00;;;;;;5057103;28;20025;-64
2022/09/21 13:06:53;;;;;;;1.05;0.88;;;17.90;84.20;;;;;;5059153;28;20474;-64
2022/09/21 13:09:20;;;;;;;3.60;0.85;;;17.90;84.40;;;;;;5057684;28;20037;-64
2022/09/21 13:11:55;;;;;;;2.30;0.90;;;17.90;84.20;;;;;;5060224;28;20021;-63
2022/09/21 13:14:26;;;;;;;2.25;0.70;;;17.80;84.10;;;;;;5060763;28;20039;-64
2022/09/21 13:17:01;;;;;;;1.25;0.73;;;17.90;84.20;;;;;;5056805;28;20108;-63
2022/09/21 13:19:30;;;;;;;2.05;0.70;;;17.70;84.70;;;;;;5055615;28;20090;-63
2022/09/21 13:22:18;;;;;;;3.20;1.52;;;17.70;85.30;;;;;;5055643;28;20016;-64
2022/09/21 13:25:00;;;;;;;3.03;0.90;;;17.70;83.90;;;;;;5055626;28;20470;-64